sensor_id;sensor_type;location;lat;lon;timestamp;temperature;humidity
7574;DHT22;3828;48.922;9.116;2023-02-15T00:01:35;-0.20;99.90
7574;DHT22;3828;48.922;9.116;2023-02-15T00:04:02;-0.20;99.90
7574;DHT22;3828;48.922;9.116;2023-02-15T00:06:31;-0.20;99.90
7574;DHT22;3828;48.922;9.116;2023-02-15T00:08:58;-0.10;99.90
7574;DHT22;3828;48.922;9.116;2023-02-15T00:14:09;-0.10;99.90
7574;DHT22;3828;48.922;9.116;2023-02-15T00:16:37;0.00;99.90
7574;DHT22;3828;48.922;9.116;2023-02-15T00:19:06;0.10;99.90
7574;DHT22;3828;48.922;9.116;2023-02-15T00:21:43;0.10;99.90
7574;DHT22;3828;48.922;9.116;2023-02-15T00:24:13;0.20;99.90
7574;DHT22;3828;48.922;9.116;2023-02-15T00:26:41;0.20;99.90
7574;DHT22;3828;48.922;9.116;2023-02-15T00:29:09;0.30;99.90
7574;DHT22;3828;48.922;9.116;2023-02-15T00:31:36;0.30;99.90
7574;DHT22;3828;48.922;9.116;2023-02-15T00:34:05;0.30;99.90
7574;DHT22;3828;48.922;9.116;2023-02-15T00:36:33;0.30;99.90
7574;DHT22;3828;48.922;9.116;2023-02-15T00:39:01;0.40;99.90
7574;DHT22;3828;48.922;9.116;2023-02-15T00:43:57;0.50;99.90
7574;DHT22;3828;48.922;9.116;2023-02-15T00:46:24;0.50;99.90
7574;DHT22;3828;48.922;9.116;2023-02-15T00:51:17;0.50;99.90
7574;DHT22;3828;48.922;9.116;2023-02-15T00:56:14;0.50;99.90
7574;DHT22;3828;48.922;9.116;2023-02-15T00:58:41;0.50;99.90
7574;DHT22;3828;48.922;9.116;2023-02-15T01:01:10;0.40;99.90
7574;DHT22;3828;48.922;9.116;2023-02-15T01:03:38;0.40;99.90
7574;DHT22;3828;48.922;9.116;2023-02-15T01:06:07;0.40;99.90
7574;DHT22;3828;48.922;9.116;2023-02-15T01:11:04;0.40;99.90
7574;DHT22;3828;48.922;9.116;2023-02-15T01:13:33;0.40;99.90
7574;DHT22;3828;48.922;9.116;2023-02-15T01:16:00;0.40;99.90
7574;DHT22;3828;48.922;9.116;2023-02-15T01:18:26;0.40;99.90
7574;DHT22;3828;48.922;9.116;2023-02-15T01:20:53;0.40;99.90
7574;DHT22;3828;48.922;9.116;2023-02-15T01:23:20;0.40;99.90
7574;DHT22;3828;48.922;9.116;2023-02-15T01:28:14;0.40;99.90
7574;DHT22;3828;48.922;9.116;2023-02-15T01:30:43;0.40;99.90
7574;DHT22;3828;48.922;9.116;2023-02-15T01:33:10;2.00;99.90
7574;DHT22;3828;48.922;9.116;2023-02-15T01:38:10;0.30;99.90
7574;DHT22;3828;48.922;9.116;2023-02-15T01:40:36;0.20;99.90
7574;DHT22;3828;48.922;9.116;2023-02-15T01:43:09;0.40;99.90
7574;DHT22;3828;48.922;9.116;2023-02-15T01:45:37;0.30;99.90
7574;DHT22;3828;48.922;9.116;2023-02-15T01:48:20;0.30;99.90
7574;DHT22;3828;48.922;9.116;2023-02-15T01:50:54;0.30;99.90
7574;DHT22;3828;48.922;9.116;2023-02-15T01:53:26;0.30;99.90
7574;DHT22;3828;48.922;9.116;2023-02-15T01:55:57;0.30;99.90
7574;DHT22;3828;48.922;9.116;2023-02-15T01:58:26;0.30;99.90
7574;DHT22;3828;48.922;9.116;2023-02-15T02:00:56;0.30;99.90
7574;DHT22;3828;48.922;9.116;2023-02-15T02:03:30;0.30;99.90
7574;DHT22;3828;48.922;9.116;2023-02-15T02:06:03;0.30;99.90
7574;DHT22;3828;48.922;9.116;2023-02-15T02:08:30;0.30;99.90
7574;DHT22;3828;48.922;9.116;2023-02-15T02:10:57;0.20;99.90
7574;DHT22;3828;48.922;9.116;2023-02-15T02:13:24;0.30;99.90
7574;DHT22;3828;48.922;9.116;2023-02-15T02:15:56;0.30;99.90
7574;DHT22;3828;48.922;9.116;2023-02-15T02:18:37;0.20;99.90
7574;DHT22;3828;48.922;9.116;2023-02-15T02:21:24;0.20;99.90
7574;DHT22;3828;48.922;9.116;2023-02-15T02:24:13;0.30;99.90
7574;DHT22;3828;48.922;9.116;2023-02-15T02:27:06;0.20;99.90
7574;DHT22;3828;48.922;9.116;2023-02-15T02:30:06;0.30;99.90
7574;DHT22;3828;48.922;9.116;2023-02-15T02:35:46;0.10;99.90
7574;DHT22;3828;48.922;9.116;2023-02-15T02:38:21;0.10;99.90
7574;DHT22;3828;48.922;9.116;2023-02-15T02:40:56;0.10;99.90
7574;DHT22;3828;48.922;9.116;2023-02-15T02:43:32;0.10;99.90
7574;DHT22;3828;48.922;9.116;2023-02-15T02:46:02;0.10;99.90
7574;DHT22;3828;48.922;9.116;2023-02-15T02:48:33;0.00;99.90
7574;DHT22;3828;48.922;9.116;2023-02-15T02:51:00;0.00;99.90
7574;DHT22;3828;48.922;9.116;2023-02-15T02:53:30;0.10;99.90
7574;DHT22;3828;48.922;9.116;2023-02-15T02:56:01;0.10;99.90
7574;DHT22;3828;48.922;9.116;2023-02-15T02:58:34;0.10;99.90
7574;DHT22;3828;48.922;9.116;2023-02-15T03:01:08;0.10;99.90
7574;DHT22;3828;48.922;9.116;2023-02-15T03:03:38;0.10;99.90
7574;DHT22;3828;48.922;9.116;2023-02-15T03:06:11;0.10;99.90
7574;DHT22;3828;48.922;9.116;2023-02-15T03:08:40;0.10;99.90
7574;DHT22;3828;48.922;9.116;2023-02-15T03:11:09;0.00;99.90
7574;DHT22;3828;48.922;9.116;2023-02-15T03:13:37;0.00;99.90
7574;DHT22;3828;48.922;9.116;2023-02-15T03:16:06;0.00;99.90
7574;DHT22;3828;48.922;9.116;2023-02-15T03:18:56;0.10;99.90
7574;DHT22;3828;48.922;9.116;2023-02-15T03:21:30;0.00;99.90
7574;DHT22;3828;48.922;9.116;2023-02-15T03:24:00;0.00;99.90
7574;DHT22;3828;48.922;9.116;2023-02-15T03:26:29;0.00;99.90
7574;DHT22;3828;48.922;9.116;2023-02-15T03:28:58;0.00;99.90
7574;DHT22;3828;48.922;9.116;2023-02-15T03:31:31;0.00;99.90
7574;DHT22;3828;48.922;9.116;2023-02-15T03:34:02;0.00;99.90
7574;DHT22;3828;48.922;9.116;2023-02-15T03:36:36;0.00;99.90
7574;DHT22;3828;48.922;9.116;2023-02-15T03:39:12;0.00;99.90
7574;DHT22;3828;48.922;9.116;2023-02-15T03:41:46;0.00;99.90
7574;DHT22;3828;48.922;9.116;2023-02-15T03:44:18;-0.10;99.90
7574;DHT22;3828;48.922;9.116;2023-02-15T03:46:52;0.00;99.90
7574;DHT22;3828;48.922;9.116;2023-02-15T03:49:24;0.10;99.90
7574;DHT22;3828;48.922;9.116;2023-02-15T03:51:53;0.00;99.90
7574;DHT22;3828;48.922;9.116;2023-02-15T03:54:24;0.10;99.90
7574;DHT22;3828;48.922;9.116;2023-02-15T03:57:17;0.10;99.90
7574;DHT22;3828;48.922;9.116;2023-02-15T04:00:05;0.10;99.90
7574;DHT22;3828;48.922;9.116;2023-02-15T04:03:00;0.00;99.90
7574;DHT22;3828;48.922;9.116;2023-02-15T04:05:31;0.00;99.90
7574;DHT22;3828;48.922;9.116;2023-02-15T04:07:58;0.00;99.90
7574;DHT22;3828;48.922;9.116;2023-02-15T04:13:10;-0.10;99.90
7574;DHT22;3828;48.922;9.116;2023-02-15T04:15:36;-0.10;99.90
7574;DHT22;3828;48.922;9.116;2023-02-15T04:18:25;0.00;99.90
7574;DHT22;3828;48.922;9.116;2023-02-15T04:21:11;-0.10;99.90
7574;DHT22;3828;48.922;9.116;2023-02-15T04:23:55;-0.10;99.90
7574;DHT22;3828;48.922;9.116;2023-02-15T04:26:39;-0.10;99.90
7574;DHT22;3828;48.922;9.116;2023-02-15T04:29:06;-0.10;99.90
7574;DHT22;3828;48.922;9.116;2023-02-15T04:31:33;0.00;99.90
7574;DHT22;3828;48.922;9.116;2023-02-15T04:33:59;0.00;99.90
7574;DHT22;3828;48.922;9.116;2023-02-15T04:36:27;0.00;99.90
7574;DHT22;3828;48.922;9.116;2023-02-15T04:38:54;0.00;99.90
7574;DHT22;3828;48.922;9.116;2023-02-15T04:41:21;0.10;99.90
7574;DHT22;3828;48.922;9.116;2023-02-15T04:43:48;0.00;99.90
7574;DHT22;3828;48.922;9.116;2023-02-15T04:46:15;0.00;99.90
7574;DHT22;3828;48.922;9.116;2023-02-15T04:48:42;0.10;99.90
7574;DHT22;3828;48.922;9.116;2023-02-15T04:53:37;-0.20;99.90
7574;DHT22;3828;48.922;9.116;2023-02-15T04:56:04;0.10;99.90
7574;DHT22;3828;48.922;9.116;2023-02-15T04:58:31;0.00;99.90
7574;DHT22;3828;48.922;9.116;2023-02-15T05:00:58;0.00;99.90
7574;DHT22;3828;48.922;9.116;2023-02-15T05:03:25;0.00;99.90
7574;DHT22;3828;48.922;9.116;2023-02-15T05:05:55;0.00;99.90
7574;DHT22;3828;48.922;9.116;2023-02-15T05:10:50;0.00;99.90
7574;DHT22;3828;48.922;9.116;2023-02-15T05:13:17;-0.10;99.90
7574;DHT22;3828;48.922;9.116;2023-02-15T05:15:47;-0.10;99.90
7574;DHT22;3828;48.922;9.116;2023-02-15T05:18:15;-0.10;99.90
7574;DHT22;3828;48.922;9.116;2023-02-15T05:20:42;-0.10;99.90
7574;DHT22;3828;48.922;9.116;2023-02-15T05:23:09;-0.10;99.90
7574;DHT22;3828;48.922;9.116;2023-02-15T05:25:36;-0.20;99.90
7574;DHT22;3828;48.922;9.116;2023-02-15T05:28:24;-0.10;99.90
7574;DHT22;3828;48.922;9.116;2023-02-15T05:31:02;-0.10;99.90
7574;DHT22;3828;48.922;9.116;2023-02-15T05:33:29;-0.10;99.90
7574;DHT22;3828;48.922;9.116;2023-02-15T05:35:56;-0.20;99.90
7574;DHT22;3828;48.922;9.116;2023-02-15T05:38:23;-0.20;99.90
7574;DHT22;3828;48.922;9.116;2023-02-15T05:40:50;-0.20;99.90
7574;DHT22;3828;48.922;9.116;2023-02-15T05:43:17;-0.20;99.90
7574;DHT22;3828;48.922;9.116;2023-02-15T05:45:46;-0.20;99.90
7574;DHT22;3828;48.922;9.116;2023-02-15T05:50:40;-0.20;99.90
7574;DHT22;3828;48.922;9.116;2023-02-15T05:53:07;-0.30;99.90
7574;DHT22;3828;48.922;9.116;2023-02-15T05:55:36;-0.20;99.90
7574;DHT22;3828;48.922;9.116;2023-02-15T05:58:03;-0.30;99.90
7574;DHT22;3828;48.922;9.116;2023-02-15T06:00:30;-0.30;99.90
7574;DHT22;3828;48.922;9.116;2023-02-15T06:02:58;-0.30;99.90
7574;DHT22;3828;48.922;9.116;2023-02-15T06:05:25;-0.30;99.90
7574;DHT22;3828;48.922;9.116;2023-02-15T06:07:51;-0.40;99.90
7574;DHT22;3828;48.922;9.116;2023-02-15T06:12:46;-0.40;99.90
7574;DHT22;3828;48.922;9.116;2023-02-15T06:15:13;-0.40;99.90
7574;DHT22;3828;48.922;9.116;2023-02-15T06:17:41;-0.40;99.90
7574;DHT22;3828;48.922;9.116;2023-02-15T06:20:10;-0.40;99.90
7574;DHT22;3828;48.922;9.116;2023-02-15T06:22:37;-0.40;99.90
7574;DHT22;3828;48.922;9.116;2023-02-15T06:25:05;-0.40;99.90
7574;DHT22;3828;48.922;9.116;2023-02-15T06:27:31;-0.40;99.90
7574;DHT22;3828;48.922;9.116;2023-02-15T06:29:58;-0.30;99.90
7574;DHT22;3828;48.922;9.116;2023-02-15T06:32:25;-0.50;99.90
7574;DHT22;3828;48.922;9.116;2023-02-15T06:34:52;-0.60;99.90
7574;DHT22;3828;48.922;9.116;2023-02-15T06:37:20;-0.50;99.90
7574;DHT22;3828;48.922;9.116;2023-02-15T06:42:14;-0.60;99.90
7574;DHT22;3828;48.922;9.116;2023-02-15T06:44:43;-0.50;99.90
7574;DHT22;3828;48.922;9.116;2023-02-15T06:47:10;-0.50;99.90
7574;DHT22;3828;48.922;9.116;2023-02-15T06:49:37;-0.50;99.90
7574;DHT22;3828;48.922;9.116;2023-02-15T06:52:04;-0.60;99.90
7574;DHT22;3828;48.922;9.116;2023-02-15T06:54:32;-0.50;99.90
7574;DHT22;3828;48.922;9.116;2023-02-15T06:56:59;-0.50;99.90
7574;DHT22;3828;48.922;9.116;2023-02-15T06:59:26;-0.50;99.90
7574;DHT22;3828;48.922;9.116;2023-02-15T07:01:53;-0.50;99.90
7574;DHT22;3828;48.922;9.116;2023-02-15T07:04:19;-0.50;99.90
7574;DHT22;3828;48.922;9.116;2023-02-15T07:09:13;-0.40;99.90
7574;DHT22;3828;48.922;9.116;2023-02-15T07:11:41;-0.40;99.90
7574;DHT22;3828;48.922;9.116;2023-02-15T07:14:26;-0.30;99.90
7574;DHT22;3828;48.922;9.116;2023-02-15T07:16:52;-0.30;99.90
7574;DHT22;3828;48.922;9.116;2023-02-15T07:19:19;-0.30;99.90
7574;DHT22;3828;48.922;9.116;2023-02-15T07:21:46;-0.30;99.90
7574;DHT22;3828;48.922;9.116;2023-02-15T07:24:14;-0.30;99.90
7574;DHT22;3828;48.922;9.116;2023-02-15T07:26:42;-0.20;99.90
7574;DHT22;3828;48.922;9.116;2023-02-15T07:29:08;-0.20;99.90
7574;DHT22;3828;48.922;9.116;2023-02-15T07:31:35;-0.30;99.90
7574;DHT22;3828;48.922;9.116;2023-02-15T07:36:29;-0.30;99.90
7574;DHT22;3828;48.922;9.116;2023-02-15T07:38:56;-0.20;99.90
7574;DHT22;3828;48.922;9.116;2023-02-15T07:41:22;-0.20;99.90
7574;DHT22;3828;48.922;9.116;2023-02-15T07:43:51;-0.20;99.90
7574;DHT22;3828;48.922;9.116;2023-02-15T07:46:18;-0.20;99.90
7574;DHT22;3828;48.922;9.116;2023-02-15T07:48:46;-0.10;99.90
7574;DHT22;3828;48.922;9.116;2023-02-15T07:51:13;0.00;99.90
7574;DHT22;3828;48.922;9.116;2023-02-15T07:53:42;0.10;99.90
7574;DHT22;3828;48.922;9.116;2023-02-15T07:56:28;0.10;99.90
7574;DHT22;3828;48.922;9.116;2023-02-15T07:58:57;0.00;99.90
7574;DHT22;3828;48.922;9.116;2023-02-15T08:01:27;0.00;99.90
7574;DHT22;3828;48.922;9.116;2023-02-15T08:03:55;0.00;99.90
7574;DHT22;3828;48.922;9.116;2023-02-15T08:06:25;0.00;99.90
7574;DHT22;3828;48.922;9.116;2023-02-15T08:08:52;0.00;99.90
7574;DHT22;3828;48.922;9.116;2023-02-15T08:11:21;0.10;99.90
7574;DHT22;3828;48.922;9.116;2023-02-15T08:13:52;0.00;99.90
7574;DHT22;3828;48.922;9.116;2023-02-15T08:16:27;0.00;99.90
7574;DHT22;3828;48.922;9.116;2023-02-15T08:18:55;0.00;99.90
7574;DHT22;3828;48.922;9.116;2023-02-15T08:21:23;0.10;99.90
7574;DHT22;3828;48.922;9.116;2023-02-15T08:23:53;0.10;99.90
7574;DHT22;3828;48.922;9.116;2023-02-15T08:26:20;0.10;99.90
7574;DHT22;3828;48.922;9.116;2023-02-15T08:31:14;0.20;99.90
7574;DHT22;3828;48.922;9.116;2023-02-15T08:33:44;0.30;99.90
7574;DHT22;3828;48.922;9.116;2023-02-15T08:36:13;0.40;99.90
7574;DHT22;3828;48.922;9.116;2023-02-15T08:38:40;0.40;99.90
7574;DHT22;3828;48.922;9.116;2023-02-15T08:41:12;0.50;99.90
7574;DHT22;3828;48.922;9.116;2023-02-15T08:43:39;0.50;99.90
7574;DHT22;3828;48.922;9.116;2023-02-15T08:46:06;0.50;99.90
7574;DHT22;3828;48.922;9.116;2023-02-15T08:48:33;0.50;99.90
7574;DHT22;3828;48.922;9.116;2023-02-15T08:51:06;0.50;99.90
7574;DHT22;3828;48.922;9.116;2023-02-15T08:53:33;0.60;99.90
7574;DHT22;3828;48.922;9.116;2023-02-15T08:56:00;0.60;99.90
7574;DHT22;3828;48.922;9.116;2023-02-15T08:58:28;0.70;99.90
7574;DHT22;3828;48.922;9.116;2023-02-15T09:00:56;0.80;99.90
7574;DHT22;3828;48.922;9.116;2023-02-15T09:03:22;0.90;99.90
7574;DHT22;3828;48.922;9.116;2023-02-15T09:05:49;1.00;99.90
7574;DHT22;3828;48.922;9.116;2023-02-15T09:08:17;1.00;99.90
7574;DHT22;3828;48.922;9.116;2023-02-15T09:13:11;1.10;99.90
7574;DHT22;3828;48.922;9.116;2023-02-15T09:15:38;1.20;99.90
7574;DHT22;3828;48.922;9.116;2023-02-15T09:18:05;1.20;99.90
7574;DHT22;3828;48.922;9.116;2023-02-15T09:20:35;1.20;99.90
7574;DHT22;3828;48.922;9.116;2023-02-15T09:23:02;1.40;99.90
7574;DHT22;3828;48.922;9.116;2023-02-15T09:25:30;1.40;99.90
7574;DHT22;3828;48.922;9.116;2023-02-15T09:27:57;1.40;99.90
7574;DHT22;3828;48.922;9.116;2023-02-15T09:32:51;1.50;99.90
7574;DHT22;3828;48.922;9.116;2023-02-15T09:37:44;1.60;99.90
7574;DHT22;3828;48.922;9.116;2023-02-15T09:40:12;1.70;99.90
7574;DHT22;3828;48.922;9.116;2023-02-15T09:43:02;1.80;99.90
7574;DHT22;3828;48.922;9.116;2023-02-15T09:45:42;1.90;99.90
7574;DHT22;3828;48.922;9.116;2023-02-15T09:48:39;2.00;99.90
7574;DHT22;3828;48.922;9.116;2023-02-15T09:51:19;1.80;99.90
7574;DHT22;3828;48.922;9.116;2023-02-15T09:54:06;2.00;99.90
7574;DHT22;3828;48.922;9.116;2023-02-15T09:56:40;1.90;99.90
7574;DHT22;3828;48.922;9.116;2023-02-15T09:59:16;1.90;99.90
7574;DHT22;3828;48.922;9.116;2023-02-15T10:01:51;2.00;99.90
7574;DHT22;3828;48.922;9.116;2023-02-15T10:04:53;2.00;99.90
7574;DHT22;3828;48.922;9.116;2023-02-15T10:07:35;2.10;99.90
7574;DHT22;3828;48.922;9.116;2023-02-15T10:10:12;2.10;99.90
7574;DHT22;3828;48.922;9.116;2023-02-15T10:12:52;2.20;99.90
7574;DHT22;3828;48.922;9.116;2023-02-15T10:15:30;2.10;99.90
7574;DHT22;3828;48.922;9.116;2023-02-15T10:18:23;2.20;99.90
7574;DHT22;3828;48.922;9.116;2023-02-15T10:20:56;2.30;99.90
7574;DHT22;3828;48.922;9.116;2023-02-15T10:23:46;2.50;99.90
7574;DHT22;3828;48.922;9.116;2023-02-15T10:26:18;2.60;99.90
7574;DHT22;3828;48.922;9.116;2023-02-15T10:28:48;2.50;99.90
7574;DHT22;3828;48.922;9.116;2023-02-15T10:31:36;2.50;99.90
7574;DHT22;3828;48.922;9.116;2023-02-15T10:34:23;2.60;99.90
7574;DHT22;3828;48.922;9.116;2023-02-15T10:37:18;2.50;99.90
7574;DHT22;3828;48.922;9.116;2023-02-15T10:39:54;2.60;99.90
7574;DHT22;3828;48.922;9.116;2023-02-15T10:42:32;2.60;99.90
7574;DHT22;3828;48.922;9.116;2023-02-15T10:45:17;2.50;99.90
7574;DHT22;3828;48.922;9.116;2023-02-15T10:48:00;2.50;99.90
7574;DHT22;3828;48.922;9.116;2023-02-15T10:50:47;2.50;99.90
7574;DHT22;3828;48.922;9.116;2023-02-15T10:56:22;2.80;99.90
7574;DHT22;3828;48.922;9.116;2023-02-15T10:59:04;2.90;99.90
7574;DHT22;3828;48.922;9.116;2023-02-15T11:01:36;2.90;99.90
7574;DHT22;3828;48.922;9.116;2023-02-15T11:04:16;2.80;99.90
7574;DHT22;3828;48.922;9.116;2023-02-15T11:06:55;2.90;99.90
7574;DHT22;3828;48.922;9.116;2023-02-15T11:09:25;3.00;99.90
7574;DHT22;3828;48.922;9.116;2023-02-15T11:11:57;3.10;99.90
7574;DHT22;3828;48.922;9.116;2023-02-15T11:14:37;3.10;99.90
7574;DHT22;3828;48.922;9.116;2023-02-15T11:17:09;3.30;99.90
7574;DHT22;3828;48.922;9.116;2023-02-15T11:19:42;3.40;99.90
7574;DHT22;3828;48.922;9.116;2023-02-15T11:22:11;3.20;99.90
7574;DHT22;3828;48.922;9.116;2023-02-15T11:24:41;3.20;99.90
7574;DHT22;3828;48.922;9.116;2023-02-15T11:27:17;3.20;99.90
7574;DHT22;3828;48.922;9.116;2023-02-15T11:29:52;3.30;99.90
7574;DHT22;3828;48.922;9.116;2023-02-15T11:32:22;3.40;99.90
7574;DHT22;3828;48.922;9.116;2023-02-15T11:34:55;3.40;99.90
7574;DHT22;3828;48.922;9.116;2023-02-15T11:37:27;3.50;99.90
7574;DHT22;3828;48.922;9.116;2023-02-15T11:42:24;3.90;99.90
7574;DHT22;3828;48.922;9.116;2023-02-15T11:44:57;4.00;99.90
7574;DHT22;3828;48.922;9.116;2023-02-15T11:47:25;4.30;99.90
7574;DHT22;3828;48.922;9.116;2023-02-15T11:49:53;4.40;99.90
7574;DHT22;3828;48.922;9.116;2023-02-15T11:52:20;4.40;99.90
7574;DHT22;3828;48.922;9.116;2023-02-15T11:54:51;4.50;99.90
7574;DHT22;3828;48.922;9.116;2023-02-15T11:57:23;4.50;99.90
7574;DHT22;3828;48.922;9.116;2023-02-15T11:59:55;4.80;99.90
7574;DHT22;3828;48.922;9.116;2023-02-15T12:02:22;5.10;99.90
7574;DHT22;3828;48.922;9.116;2023-02-15T12:04:55;5.20;99.90
7574;DHT22;3828;48.922;9.116;2023-02-15T12:07:26;5.00;99.90
7574;DHT22;3828;48.922;9.116;2023-02-15T12:09:59;4.80;99.90
7574;DHT22;3828;48.922;9.116;2023-02-15T12:12:29;4.90;99.90
7574;DHT22;3828;48.922;9.116;2023-02-15T12:14:57;5.20;99.90
7574;DHT22;3828;48.922;9.116;2023-02-15T12:17:26;6.40;99.90
7574;DHT22;3828;48.922;9.116;2023-02-15T12:19:59;7.60;99.90
7574;DHT22;3828;48.922;9.116;2023-02-15T12:22:29;8.60;99.90
7574;DHT22;3828;48.922;9.116;2023-02-15T12:24:59;9.00;99.90
7574;DHT22;3828;48.922;9.116;2023-02-15T12:27:28;9.30;99.90
7574;DHT22;3828;48.922;9.116;2023-02-15T12:29:59;9.50;99.90
7574;DHT22;3828;48.922;9.116;2023-02-15T12:32:29;9.90;99.90
7574;DHT22;3828;48.922;9.116;2023-02-15T12:35:02;10.60;99.90
7574;DHT22;3828;48.922;9.116;2023-02-15T12:40:17;12.60;99.90
7574;DHT22;3828;48.922;9.116;2023-02-15T12:45:24;13.20;99.90
7574;DHT22;3828;48.922;9.116;2023-02-15T12:48:09;12.40;99.90
7574;DHT22;3828;48.922;9.116;2023-02-15T12:50:44;13.50;99.90
7574;DHT22;3828;48.922;9.116;2023-02-15T12:53:15;13.50;99.90
7574;DHT22;3828;48.922;9.116;2023-02-15T12:55:52;13.40;99.90
7574;DHT22;3828;48.922;9.116;2023-02-15T12:58:20;13.10;99.90
7574;DHT22;3828;48.922;9.116;2023-02-15T13:01:02;12.60;99.90
7574;DHT22;3828;48.922;9.116;2023-02-15T13:05:58;12.90;99.90
7574;DHT22;3828;48.922;9.116;2023-02-15T13:08:28;12.50;99.90
7574;DHT22;3828;48.922;9.116;2023-02-15T13:10:58;11.80;99.90
7574;DHT22;3828;48.922;9.116;2023-02-15T13:13:28;12.10;99.90
7574;DHT22;3828;48.922;9.116;2023-02-15T13:16:09;12.40;99.90
7574;DHT22;3828;48.922;9.116;2023-02-15T13:18:39;11.30;99.90
7574;DHT22;3828;48.922;9.116;2023-02-15T13:21:12;11.50;99.90
7574;DHT22;3828;48.922;9.116;2023-02-15T13:23:42;12.10;99.90
7574;DHT22;3828;48.922;9.116;2023-02-15T13:26:13;12.70;99.90
7574;DHT22;3828;48.922;9.116;2023-02-15T13:28:44;13.40;99.90
7574;DHT22;3828;48.922;9.116;2023-02-15T13:31:13;14.10;99.90
7574;DHT22;3828;48.922;9.116;2023-02-15T13:33:43;13.90;99.90
7574;DHT22;3828;48.922;9.116;2023-02-15T13:36:15;14.00;99.90
7574;DHT22;3828;48.922;9.116;2023-02-15T13:38:49;13.90;99.90
7574;DHT22;3828;48.922;9.116;2023-02-15T13:41:22;13.10;99.90
7574;DHT22;3828;48.922;9.116;2023-02-15T13:43:57;11.50;99.90
7574;DHT22;3828;48.922;9.116;2023-02-15T13:46:37;11.10;99.90
7574;DHT22;3828;48.922;9.116;2023-02-15T13:49:17;10.80;99.90
7574;DHT22;3828;48.922;9.116;2023-02-15T13:51:57;10.00;99.90
7574;DHT22;3828;48.922;9.116;2023-02-15T13:54:42;9.80;99.90
7574;DHT22;3828;48.922;9.116;2023-02-15T13:57:32;9.20;99.90
7574;DHT22;3828;48.922;9.116;2023-02-15T14:00:08;8.80;99.90
7574;DHT22;3828;48.922;9.116;2023-02-15T14:03:04;9.10;99.90
7574;DHT22;3828;48.922;9.116;2023-02-15T14:05:57;9.70;99.90
7574;DHT22;3828;48.922;9.116;2023-02-15T14:08:40;11.00;99.90
7574;DHT22;3828;48.922;9.116;2023-02-15T14:11:12;12.10;99.90
7574;DHT22;3828;48.922;9.116;2023-02-15T14:13:54;13.10;99.90
7574;DHT22;3828;48.922;9.116;2023-02-15T14:16:33;13.00;99.90
7574;DHT22;3828;48.922;9.116;2023-02-15T14:19:11;13.70;99.90
7574;DHT22;3828;48.922;9.116;2023-02-15T14:21:42;14.70;99.90
7574;DHT22;3828;48.922;9.116;2023-02-15T14:24:25;14.70;99.90
7574;DHT22;3828;48.922;9.116;2023-02-15T14:26:59;14.50;99.90
7574;DHT22;3828;48.922;9.116;2023-02-15T14:29:38;15.00;99.90
7574;DHT22;3828;48.922;9.116;2023-02-15T14:32:10;14.90;99.90
7574;DHT22;3828;48.922;9.116;2023-02-15T14:34:44;14.60;99.90
7574;DHT22;3828;48.922;9.116;2023-02-15T14:37:13;13.20;99.90
7574;DHT22;3828;48.922;9.116;2023-02-15T14:39:48;12.20;99.90
7574;DHT22;3828;48.922;9.116;2023-02-15T14:42:40;11.30;99.90
7574;DHT22;3828;48.922;9.116;2023-02-15T14:45:17;10.90;99.90
7574;DHT22;3828;48.922;9.116;2023-02-15T14:47:48;11.00;99.90
7574;DHT22;3828;48.922;9.116;2023-02-15T14:50:44;11.50;99.90
7574;DHT22;3828;48.922;9.116;2023-02-15T14:56:25;13.00;99.90
7574;DHT22;3828;48.922;9.116;2023-02-15T14:58:57;14.20;99.90
7574;DHT22;3828;48.922;9.116;2023-02-15T15:01:26;14.60;99.90
7574;DHT22;3828;48.922;9.116;2023-02-15T15:03:57;14.60;99.90
7574;DHT22;3828;48.922;9.116;2023-02-15T15:06:27;15.20;99.90
7574;DHT22;3828;48.922;9.116;2023-02-15T15:08:58;15.20;99.90
7574;DHT22;3828;48.922;9.116;2023-02-15T15:11:42;15.30;99.90
7574;DHT22;3828;48.922;9.116;2023-02-15T15:14:11;16.00;99.90
7574;DHT22;3828;48.922;9.116;2023-02-15T15:16:58;16.30;99.90
7574;DHT22;3828;48.922;9.116;2023-02-15T15:25:08;16.90;99.90
7574;DHT22;3828;48.922;9.116;2023-02-15T15:27:49;16.90;99.90
7574;DHT22;3828;48.922;9.116;2023-02-15T15:34:12;17.10;99.90
7574;DHT22;3828;48.922;9.116;2023-02-15T15:40:17;16.20;99.90
7574;DHT22;3828;48.922;9.116;2023-02-15T15:43:22;16.60;99.90
7574;DHT22;3828;48.922;9.116;2023-02-15T15:49:09;14.10;99.90
7574;DHT22;3828;48.922;9.116;2023-02-15T15:51:40;12.80;99.90
7574;DHT22;3828;48.922;9.116;2023-02-15T15:54:14;11.90;99.90
7574;DHT22;3828;48.922;9.116;2023-02-15T15:56:44;10.70;99.90
7574;DHT22;3828;48.922;9.116;2023-02-15T15:59:19;9.80;99.90
7574;DHT22;3828;48.922;9.116;2023-02-15T16:04:23;8.50;99.90
7574;DHT22;3828;48.922;9.116;2023-02-15T16:06:51;8.50;99.90
7574;DHT22;3828;48.922;9.116;2023-02-15T16:09:19;7.70;99.90
7574;DHT22;3828;48.922;9.116;2023-02-15T16:11:48;7.40;99.90
7574;DHT22;3828;48.922;9.116;2023-02-15T16:14:21;7.10;99.90
7574;DHT22;3828;48.922;9.116;2023-02-15T16:16:54;6.80;99.90
7574;DHT22;3828;48.922;9.116;2023-02-15T16:19:27;6.60;99.90
7574;DHT22;3828;48.922;9.116;2023-02-15T16:21:59;6.50;99.90
7574;DHT22;3828;48.922;9.116;2023-02-15T16:24:38;6.20;99.90
7574;DHT22;3828;48.922;9.116;2023-02-15T16:27:19;6.00;99.90
7574;DHT22;3828;48.922;9.116;2023-02-15T16:29:50;5.90;99.90
7574;DHT22;3828;48.922;9.116;2023-02-15T16:32:19;5.70;99.90
7574;DHT22;3828;48.922;9.116;2023-02-15T16:34:53;5.50;99.90
7574;DHT22;3828;48.922;9.116;2023-02-15T16:37:22;5.40;99.90
7574;DHT22;3828;48.922;9.116;2023-02-15T16:39:51;5.30;99.90
7574;DHT22;3828;48.922;9.116;2023-02-15T16:44:47;5.00;99.90
7574;DHT22;3828;48.922;9.116;2023-02-15T16:47:19;5.30;99.90
7574;DHT22;3828;48.922;9.116;2023-02-15T16:49:50;4.70;99.90
7574;DHT22;3828;48.922;9.116;2023-02-15T16:52:21;4.60;99.90
7574;DHT22;3828;48.922;9.116;2023-02-15T16:54:53;4.50;99.90
7574;DHT22;3828;48.922;9.116;2023-02-15T16:57:24;4.40;99.90
7574;DHT22;3828;48.922;9.116;2023-02-15T16:59:54;4.30;99.90
7574;DHT22;3828;48.922;9.116;2023-02-15T17:02:26;4.20;99.90
7574;DHT22;3828;48.922;9.116;2023-02-15T17:05:16;4.10;99.90
7574;DHT22;3828;48.922;9.116;2023-02-15T17:08:10;4.00;99.90
7574;DHT22;3828;48.922;9.116;2023-02-15T17:10:40;4.00;99.90
7574;DHT22;3828;48.922;9.116;2023-02-15T17:13:10;3.90;99.90
7574;DHT22;3828;48.922;9.116;2023-02-15T17:15:39;3.80;99.90
7574;DHT22;3828;48.922;9.116;2023-02-15T17:18:14;3.70;99.90
7574;DHT22;3828;48.922;9.116;2023-02-15T17:20:43;3.60;99.90
7574;DHT22;3828;48.922;9.116;2023-02-15T17:23:22;3.60;99.90
7574;DHT22;3828;48.922;9.116;2023-02-15T17:25:52;3.50;99.90
7574;DHT22;3828;48.922;9.116;2023-02-15T17:28:21;3.50;99.90
7574;DHT22;3828;48.922;9.116;2023-02-15T17:30:49;3.40;99.90
7574;DHT22;3828;48.922;9.116;2023-02-15T17:33:23;3.40;99.90
7574;DHT22;3828;48.922;9.116;2023-02-15T17:36:09;3.30;99.90
7574;DHT22;3828;48.922;9.116;2023-02-15T17:38:40;3.20;99.90
7574;DHT22;3828;48.922;9.116;2023-02-15T17:41:07;3.50;99.90
7574;DHT22;3828;48.922;9.116;2023-02-15T17:46:02;3.10;99.90
7574;DHT22;3828;48.922;9.116;2023-02-15T17:48:32;3.00;99.90
7574;DHT22;3828;48.922;9.116;2023-02-15T17:51:01;2.90;99.90
7574;DHT22;3828;48.922;9.116;2023-02-15T17:53:29;2.90;99.90
7574;DHT22;3828;48.922;9.116;2023-02-15T17:55:56;2.80;99.90
7574;DHT22;3828;48.922;9.116;2023-02-15T18:00:50;2.70;99.90
7574;DHT22;3828;48.922;9.116;2023-02-15T18:03:42;2.70;99.90
7574;DHT22;3828;48.922;9.116;2023-02-15T18:06:27;2.60;99.90
7574;DHT22;3828;48.922;9.116;2023-02-15T18:09:13;2.50;99.90
7574;DHT22;3828;48.922;9.116;2023-02-15T18:11:57;2.50;99.90
7574;DHT22;3828;48.922;9.116;2023-02-15T18:16:51;2.40;99.90
7574;DHT22;3828;48.922;9.116;2023-02-15T18:19:22;2.30;99.90
7574;DHT22;3828;48.922;9.116;2023-02-15T18:21:50;2.30;99.90